createdAt,value
2022-10-31T00:02:34.124Z,57.45
2022-10-31T00:08:58.425Z,57.35
2022-10-31T00:15:22.613Z,57.32
2022-10-31T00:21:46.882Z,57.23
2022-10-31T00:28:11.241Z,57.27
2022-10-31T00:34:35.488Z,57.25
2022-10-31T00:40:59.687Z,57.20
2022-10-31T00:47:23.937Z,57.12
2022-10-31T00:53:48.249Z,57.06
2022-10-31T01:00:12.558Z,56.98
2022-10-31T01:06:39.549Z,56.97
2022-10-31T01:13:03.838Z,56.94
2022-10-31T01:19:27.536Z,56.93
2022-10-31T01:25:51.823Z,56.94
2022-10-31T01:32:16.524Z,56.91
2022-10-31T01:38:40.756Z,56.84
2022-10-31T01:45:05.080Z,56.80
2022-10-31T01:51:29.379Z,56.70
2022-10-31T01:57:36.464Z,56.68
2022-10-31T02:04:00.685Z,56.71
2022-10-31T02:10:24.944Z,56.60
2022-10-31T02:16:49.225Z,56.61
2022-10-31T02:23:19.371Z,56.53
2022-10-31T02:29:45.448Z,56.46
2022-10-31T02:36:07.188Z,56.42
2022-10-31T02:42:42.592Z,56.34
2022-10-31T02:49:07.058Z,56.33
2022-10-31T02:55:31.270Z,56.37
2022-10-31T03:02:17.009Z,56.35
2022-10-31T03:08:49.593Z,56.24
2022-10-31T03:15:22.862Z,56.19
2022-10-31T03:21:52.960Z,56.19
2022-10-31T03:34:41.482Z,56.06
2022-10-31T03:41:05.883Z,56.00
2022-10-31T03:47:30.099Z,55.99
2022-10-31T03:53:57.191Z,55.90
2022-10-31T04:00:33.705Z,55.94
2022-10-31T04:06:57.954Z,55.85
2022-10-31T04:13:22.447Z,55.77
2022-10-31T04:19:46.663Z,55.78
2022-10-31T04:26:10.992Z,55.74
2022-10-31T04:32:35.190Z,55.68
2022-10-31T04:38:59.415Z,55.64
2022-10-31T04:45:29.595Z,55.56
2022-10-31T04:51:53.869Z,55.52
2022-10-31T04:58:27.090Z,55.44
2022-10-31T05:04:51.282Z,55.44
2022-10-31T05:11:15.621Z,55.43
2022-10-31T05:17:40.001Z,55.45
2022-10-31T05:24:09.853Z,55.48
2022-10-31T05:30:33.999Z,55.42
2022-10-31T05:36:58.270Z,55.39
2022-10-31T05:43:15.135Z,55.38
2022-10-31T05:49:32.317Z,55.32
2022-10-31T05:55:56.584Z,55.33
2022-10-31T06:02:21.009Z,55.32
2022-10-31T06:08:45.416Z,55.26
2022-10-31T06:15:09.703Z,55.23
2022-10-31T06:21:33.907Z,55.25
2022-10-31T06:27:58.675Z,55.35
2022-10-31T06:34:22.946Z,55.22
2022-10-31T06:40:47.367Z,55.17
2022-10-31T06:47:21.131Z,55.26
2022-10-31T06:53:54.362Z,55.14
2022-10-31T07:00:18.621Z,55.18
2022-10-31T07:06:42.940Z,55.12
2022-10-31T07:13:07.250Z,55.08
2022-10-31T07:19:31.449Z,55.06
2022-10-31T07:25:55.851Z,55.11
2022-10-31T07:32:20.079Z,55.07
2022-10-31T07:38:50.060Z,55.02
2022-10-31T07:45:14.364Z,54.98
2022-10-31T07:51:54.291Z,55.09
2022-10-31T07:58:17.136Z,54.96
2022-10-31T08:04:41.420Z,55.04
2022-10-31T08:11:14.604Z,55.01
2022-10-31T08:17:38.843Z,55.07
2022-10-31T08:24:03.257Z,55.00
2022-10-31T08:30:27.541Z,54.98
2022-10-31T08:36:51.952Z,55.01
2022-10-31T08:43:22.335Z,55.01
2022-10-31T08:49:46.619Z,55.03
2022-10-31T08:56:10.851Z,55.06
2022-10-31T09:02:35.052Z,55.10
2022-10-31T09:09:02.106Z,55.11
2022-10-31T09:15:26.321Z,55.14
2022-10-31T09:21:50.545Z,55.17
2022-10-31T09:28:14.852Z,55.18
2022-10-31T09:34:39.042Z,55.21
2022-10-31T09:41:03.362Z,55.24
2022-10-31T09:47:39.685Z,55.32
2022-10-31T09:54:25.284Z,55.38
2022-10-31T10:00:49.792Z,55.41
2022-10-31T10:07:17.116Z,55.49
2022-10-31T10:13:43.259Z,55.55
2022-10-31T10:20:32.034Z,55.64
2022-10-31T10:26:59.416Z,55.70
2022-10-31T10:33:29.452Z,55.72
2022-10-31T10:39:53.877Z,55.75
2022-10-31T10:46:16.491Z,55.77
2022-10-31T10:52:55.705Z,55.80
2022-10-31T10:59:20.112Z,55.85
2022-10-31T11:05:44.488Z,55.97
2022-10-31T11:12:08.694Z,56.07
2022-10-31T11:18:38.807Z,56.12
2022-10-31T11:25:05.949Z,56.19
2022-10-31T11:31:30.243Z,56.35
2022-10-31T11:37:54.539Z,56.36
2022-10-31T11:44:18.754Z,56.31
2022-10-31T11:50:42.995Z,56.48
2022-10-31T11:57:07.287Z,56.49
2022-10-31T12:03:31.483Z,56.63
2022-10-31T12:09:55.782Z,56.64
2022-10-31T12:16:20.118Z,56.72
2022-10-31T12:22:50.432Z,56.72
2022-10-31T12:29:36.096Z,56.79
2022-10-31T12:36:29.991Z,56.80
2022-10-31T12:42:54.226Z,57.00
2022-10-31T12:49:17.169Z,56.92
2022-10-31T12:56:08.847Z,56.94
2022-10-31T13:02:36.006Z,57.03
2022-10-31T13:09:09.389Z,57.12
2022-10-31T13:15:36.625Z,57.08
2022-10-31T13:22:01.143Z,57.12
2022-10-31T13:28:47.120Z,57.17
2022-10-31T13:35:23.567Z,57.20
2022-10-31T13:41:53.797Z,57.26
2022-10-31T13:48:39.328Z,57.32
2022-10-31T13:55:06.198Z,57.33
2022-10-31T14:01:32.790Z,57.34
2022-10-31T14:08:03.366Z,57.46
2022-10-31T14:14:31.160Z,57.47
2022-10-31T14:21:01.341Z,57.47
2022-10-31T14:27:25.701Z,57.45
2022-10-31T14:34:01.773Z,57.52
2022-10-31T14:40:44.502Z,57.67
2022-10-31T14:47:17.490Z,57.78
2022-10-31T14:53:41.798Z,57.93
2022-10-31T15:00:11.737Z,58.06
2022-10-31T15:06:36.058Z,58.20
2022-10-31T15:13:05.911Z,58.27
2022-10-31T15:19:38.927Z,58.32
2022-10-31T15:26:03.201Z,58.33
2022-10-31T15:32:36.146Z,58.41
2022-10-31T15:39:00.432Z,58.45
2022-10-31T15:45:24.731Z,58.52
2022-10-31T15:51:54.126Z,58.51
2022-10-31T15:58:21.226Z,58.78
2022-10-31T16:04:54.580Z,58.85
2022-10-31T16:11:24.881Z,58.96
2022-10-31T16:17:49.240Z,59.20
2022-10-31T16:24:13.435Z,59.23
2022-10-31T16:30:45.420Z,59.29
2022-10-31T16:37:30.346Z,59.29
2022-10-31T16:43:54.631Z,59.44
2022-10-31T16:50:19.142Z,59.42
2022-10-31T16:56:43.371Z,59.51
2022-10-31T17:03:07.693Z,59.48
2022-10-31T17:09:32.045Z,59.48
2022-10-31T17:15:56.269Z,59.68
2022-10-31T17:22:20.751Z,59.72
2022-10-31T17:28:44.969Z,59.79
2022-10-31T17:35:09.212Z,59.90
2022-10-31T17:41:33.538Z,59.93
2022-10-31T17:47:57.884Z,59.99
2022-10-31T17:54:22.147Z,59.92
2022-10-31T18:00:50.389Z,59.97
2022-10-31T18:07:10.800Z,59.97
2022-10-31T18:13:35.142Z,60.11
2022-10-31T18:19:58.932Z,60.06
2022-10-31T18:26:23.171Z,60.15
2022-10-31T18:32:47.419Z,60.11
2022-10-31T18:39:11.696Z,60.27
2022-10-31T18:45:54.995Z,60.42
2022-10-31T18:52:20.199Z,60.49
2022-10-31T18:58:44.444Z,60.54
2022-10-31T19:05:08.708Z,60.59
2022-10-31T19:11:33.047Z,60.58
2022-10-31T19:17:47.119Z,60.56
2022-10-31T19:24:11.454Z,60.56
2022-10-31T19:30:35.724Z,60.60
2022-10-31T19:36:59.908Z,60.60
2022-10-31T19:49:53.380Z,60.73
2022-10-31T19:56:17.594Z,60.86
2022-10-31T20:02:41.976Z,60.97
2022-10-31T20:09:06.335Z,61.08
2022-10-31T20:15:30.603Z,61.10
2022-10-31T20:21:54.911Z,61.16
2022-10-31T20:28:19.450Z,61.17
2022-10-31T20:34:43.710Z,61.05
2022-10-31T20:41:08.176Z,61.12
2022-10-31T20:47:32.376Z,61.00
2022-10-31T20:53:56.574Z,61.02
2022-10-31T21:00:20.878Z,61.11
2022-10-31T21:06:49.271Z,61.06
2022-10-31T21:13:14.035Z,61.25
2022-10-31T21:19:38.215Z,61.34
2022-10-31T21:26:02.388Z,61.47
2022-10-31T21:32:26.625Z,61.50
2022-10-31T21:38:50.976Z,61.51
2022-10-31T21:45:15.157Z,61.48
2022-10-31T21:51:39.311Z,61.48
2022-10-31T21:58:03.945Z,61.57
2022-10-31T22:04:28.500Z,61.51
2022-10-31T22:10:53.234Z,61.50
2022-10-31T22:17:17.560Z,61.42
2022-10-31T22:23:41.837Z,61.49
2022-10-31T22:30:06.025Z,61.59
2022-10-31T22:36:30.289Z,81.85
2022-10-31T22:42:54.528Z,73.96
2022-10-31T22:49:18.912Z,54.79
2022-10-31T22:55:43.134Z,51.05
2022-10-31T23:02:08.617Z,51.56
2022-10-31T23:08:35.813Z,52.47
2022-10-31T23:14:59.887Z,53.52
2022-10-31T23:21:24.241Z,54.52
2022-10-31T23:27:51.211Z,55.40
2022-10-31T23:34:15.409Z,56.18
2022-10-31T23:40:40.799Z,56.82
2022-10-31T23:47:05.034Z,57.54
2022-10-31T23:53:29.303Z,58.15
2022-10-31T23:59:53.609Z,58.63
